createdAt,value
2023-03-28T00:00:15.128Z,73584.50
2023-03-28T00:00:48.539Z,73592.47
2023-03-28T00:01:20.915Z,73592.47
2023-03-28T00:01:56.002Z,73592.47
2023-03-28T00:02:28.373Z,73584.50
2023-03-28T00:03:00.792Z,73592.47
2023-03-28T00:03:39.811Z,73588.47
2023-03-28T00:04:13.300Z,73600.47
2023-03-28T00:04:50.907Z,73592.47
2023-03-28T00:05:24.398Z,73604.44
2023-03-28T00:05:57.609Z,73598.47
2023-03-28T00:06:32.737Z,73598.47
2023-03-28T00:07:05.832Z,73600.47
2023-03-28T00:07:38.659Z,73596.47
2023-03-28T00:08:14.857Z,73596.47
2023-03-28T00:08:47.677Z,73598.47
2023-03-28T00:09:20.311Z,73598.47
2023-03-28T00:09:56.398Z,73598.47
2023-03-28T00:10:29.408Z,73604.44
2023-03-28T00:11:08.715Z,73604.44
2023-03-28T00:11:41.079Z,73598.47
2023-03-28T00:12:13.408Z,73596.47
2023-03-28T00:12:48.535Z,73600.47
2023-03-28T00:13:21.544Z,73598.47
2023-03-28T00:14:01.251Z,73600.47
2023-03-28T00:14:35.836Z,73598.47
2023-03-28T00:15:08.794Z,73606.44
2023-03-28T00:15:44.929Z,73596.47
2023-03-28T00:16:17.360Z,73596.47
2023-03-28T00:16:50.671Z,73598.47
2023-03-28T00:17:25.609Z,73604.44
2023-03-28T00:18:00.350Z,73596.47
2023-03-28T00:18:37.801Z,73606.44
2023-03-28T00:19:15.690Z,73604.44
2023-03-28T00:19:50.671Z,73600.47
2023-03-28T00:20:23.104Z,73604.44
2023-03-28T00:20:59.077Z,73600.47
2023-03-28T00:21:33.056Z,73600.47
2023-03-28T00:22:05.385Z,73602.47
2023-03-28T00:22:41.038Z,73600.47
2023-03-28T00:23:13.498Z,73600.47
2023-03-28T00:23:45.891Z,73604.44
2023-03-28T00:24:22.646Z,73604.44
2023-03-28T00:24:54.983Z,73600.47
2023-03-28T00:25:27.315Z,73598.47
2023-03-28T00:26:08.139Z,73600.47
2023-03-28T00:26:41.065Z,73600.47
2023-03-28T00:27:13.403Z,73600.47
2023-03-28T00:27:48.334Z,73604.44
2023-03-28T00:28:20.820Z,73604.44
2023-03-28T00:28:53.650Z,73600.47
2023-03-28T00:29:30.361Z,73600.47
2023-03-28T00:30:04.032Z,73600.47
2023-03-28T00:30:36.390Z,73606.44
2023-03-28T00:31:11.698Z,73608.44
2023-03-28T00:31:44.200Z,73606.44
2023-03-28T00:32:16.640Z,73606.44
2023-03-28T00:32:52.109Z,73604.44
2023-03-28T00:33:24.653Z,73604.44
2023-03-28T00:33:57.730Z,73608.44
2023-03-28T00:34:32.692Z,73608.44
2023-03-28T00:35:09.839Z,73612.44
2023-03-28T00:35:42.340Z,73604.44
2023-03-28T00:36:18.701Z,73604.44
2023-03-28T00:36:51.134Z,73610.44
2023-03-28T00:37:23.791Z,73608.44
2023-03-28T00:37:59.637Z,73608.44
2023-03-28T00:38:32.278Z,73606.44
2023-03-28T00:39:06.870Z,73608.44
2023-03-28T00:39:43.650Z,73612.44
2023-03-28T00:40:16.183Z,73614.44
2023-03-28T00:40:48.922Z,73614.44
2023-03-28T00:41:24.731Z,73612.44
2023-03-28T00:42:01.717Z,73610.44
2023-03-28T00:42:34.102Z,73614.44
2023-03-28T00:43:09.089Z,73616.44
2023-03-28T00:43:43.488Z,73616.44
2023-03-28T00:44:58.491Z,73620.41
2023-03-28T00:45:31.114Z,73618.44
2023-03-28T00:46:09.009Z,73614.44
2023-03-28T00:46:45.203Z,73624.41
2023-03-28T00:47:26.092Z,73620.41
2023-03-28T00:48:02.348Z,73620.41
2023-03-28T00:48:37.360Z,73624.41
2023-03-28T00:49:14.102Z,73622.41
2023-03-28T00:49:49.835Z,73624.41
2023-03-28T00:50:30.964Z,73632.41
2023-03-28T00:51:04.010Z,73626.41
2023-03-28T00:51:38.042Z,73618.44
2023-03-28T00:52:15.660Z,73628.41
2023-03-28T00:52:53.091Z,73624.41
2023-03-28T00:53:26.567Z,73628.41
2023-03-28T00:54:02.949Z,73626.41
2023-03-28T00:54:39.827Z,73626.41
2023-03-28T00:55:16.416Z,73628.41
2023-03-28T00:55:54.137Z,73628.41
2023-03-28T00:56:29.936Z,73624.41
2023-03-28T00:57:02.906Z,73624.41
2023-03-28T00:57:38.403Z,73628.41
2023-03-28T00:58:13.803Z,73634.41
2023-03-28T00:58:47.508Z,73628.41
2023-03-28T00:59:24.589Z,73636.41
2023-03-28T00:59:56.999Z,73636.41
2023-03-28T01:00:31.202Z,73634.41
2023-03-28T01:01:08.777Z,73630.41
2023-03-28T01:01:41.442Z,73632.41
2023-03-28T01:02:13.929Z,73636.41
2023-03-28T01:02:53.498Z,73636.41
2023-03-28T01:03:28.902Z,73638.38
2023-03-28T01:04:03.265Z,73636.41
2023-03-28T01:04:41.584Z,73638.38
2023-03-28T01:05:14.296Z,73636.41
2023-03-28T01:05:52.373Z,73636.41
2023-03-28T01:06:25.507Z,73636.41
2023-03-28T01:06:59.120Z,73640.38
2023-03-28T01:07:40.110Z,73640.38
2023-03-28T01:08:15.059Z,73636.41
2023-03-28T01:08:49.097Z,73640.38
2023-03-28T01:09:24.740Z,73644.38
2023-03-28T01:09:59.763Z,73636.41
2023-03-28T01:10:33.073Z,73648.38
2023-03-28T01:11:09.139Z,73646.38
2023-03-28T01:11:42.763Z,73640.38
2023-03-28T01:12:18.622Z,73648.38
2023-03-28T01:12:54.879Z,73650.38
2023-03-28T01:13:29.656Z,73652.38
2023-03-28T01:14:02.836Z,73648.38
2023-03-28T01:14:37.082Z,73652.38
2023-03-28T01:15:14.100Z,73644.38
2023-03-28T01:15:56.904Z,73652.38
2023-03-28T01:16:31.044Z,73652.38
2023-03-28T01:17:09.039Z,73656.34
2023-03-28T01:17:41.691Z,73652.38
2023-03-28T01:18:16.500Z,73646.38
2023-03-28T01:18:53.871Z,73650.38
2023-03-28T01:19:37.296Z,73656.34
2023-03-28T01:20:22.614Z,73654.38
2023-03-28T01:21:19.666Z,73652.38
2023-03-28T01:22:14.113Z,73654.38
2023-03-28T01:23:19.088Z,73656.34
2023-03-28T01:24:34.124Z,73660.34
2023-03-28T01:25:38.523Z,73656.34
2023-03-28T01:26:32.638Z,73652.38
2023-03-28T01:27:13.172Z,73650.38
2023-03-28T01:27:52.382Z,73656.34
2023-03-28T01:28:58.812Z,73656.34
2023-03-28T01:30:22.840Z,73656.34
2023-03-28T01:31:30.416Z,73652.38
2023-03-28T01:32:46.944Z,73652.38
2023-03-28T01:33:39.789Z,73654.38
2023-03-28T01:34:35.743Z,73652.38
2023-03-28T01:35:34.007Z,73656.34
2023-03-28T01:36:51.287Z,73652.38
2023-03-28T01:37:39.603Z,73652.38
2023-03-28T01:38:22.850Z,73656.34
2023-03-28T01:39:00.120Z,73668.34
2023-03-28T01:39:42.118Z,73660.34
2023-03-28T01:40:27.908Z,73664.34
2023-03-28T01:41:11.706Z,73664.34
2023-03-28T01:41:54.628Z,73656.34
2023-03-28T01:42:33.764Z,73658.34
2023-03-28T01:43:17.841Z,73660.34
2023-03-28T01:43:56.668Z,73656.34
2023-03-28T01:44:34.662Z,73660.34
2023-03-28T01:45:15.056Z,73664.34
2023-03-28T01:45:55.459Z,73658.34
2023-03-28T01:46:30.741Z,73660.34
2023-03-28T01:47:07.629Z,73662.34
2023-03-28T01:47:44.300Z,73668.34
2023-03-28T01:48:24.433Z,73666.34
2023-03-28T01:49:04.881Z,73666.34
2023-03-28T01:49:40.730Z,73660.34
2023-03-28T01:50:18.488Z,73668.34
2023-03-28T01:50:57.212Z,73668.34
2023-03-28T01:51:37.730Z,73668.34
2023-03-28T01:52:21.014Z,73668.34
2023-03-28T01:53:03.515Z,73668.34
2023-03-28T01:53:41.403Z,73664.34
2023-03-28T01:54:22.402Z,73674.31
2023-03-28T01:54:58.474Z,73672.34
2023-03-28T01:55:42.227Z,73672.34
2023-03-28T01:56:25.566Z,73672.34
2023-03-28T01:57:03.951Z,73668.34
2023-03-28T01:57:45.359Z,73676.31
2023-03-28T01:58:23.250Z,73672.34
2023-03-28T01:59:04.844Z,73676.31
2023-03-28T02:00:04.757Z,73672.34
2023-03-28T02:00:40.586Z,73676.31
2023-03-28T02:01:15.927Z,73676.31
2023-03-28T02:01:55.339Z,73676.31
2023-03-28T02:02:32.827Z,73680.31
2023-03-28T02:03:12.127Z,73676.31
2023-03-28T02:04:20.485Z,73680.31
2023-03-28T02:05:07.356Z,73678.31
2023-03-28T02:05:47.535Z,73682.31
2023-03-28T02:06:23.908Z,73684.31
2023-03-28T02:06:57.904Z,73682.31
2023-03-28T02:07:36.815Z,73680.31
2023-03-28T02:08:17.945Z,73678.31
2023-03-28T02:09:00.140Z,73680.31
2023-03-28T02:09:44.371Z,73684.31
2023-03-28T02:10:30.449Z,73680.31
2023-03-28T02:11:12.886Z,73678.31
2023-03-28T02:12:13.263Z,73682.31
2023-03-28T02:13:20.517Z,73680.31
2023-03-28T02:14:17.043Z,73684.31
2023-03-28T02:15:04.312Z,73680.31
2023-03-28T02:15:58.092Z,73684.31
2023-03-28T02:16:55.083Z,73684.31
2023-03-28T02:17:50.698Z,73688.31
2023-03-28T02:18:49.396Z,73684.31
2023-03-28T02:19:34.365Z,73688.31
2023-03-28T02:20:19.601Z,73690.28
2023-03-28T02:21:11.139Z,73684.31
2023-03-28T02:22:12.602Z,73692.28
2023-03-28T02:23:18.863Z,73690.28
2023-03-28T02:24:14.695Z,73692.28
2023-03-28T02:24:58.927Z,73692.28
2023-03-28T02:25:43.382Z,73688.31
2023-03-28T02:26:39.036Z,73694.28
2023-03-28T02:27:37.131Z,73702.28
2023-03-28T02:28:39.648Z,73692.28
2023-03-28T02:29:24.354Z,73692.28
2023-03-28T02:30:03.757Z,73692.28
2023-03-28T02:30:46.301Z,73702.28
2023-03-28T02:31:21.818Z,73700.28
2023-03-28T02:31:54.211Z,73698.28
2023-03-28T02:32:29.224Z,73692.28
2023-03-28T02:33:02.297Z,73696.28
2023-03-28T02:33:39.140Z,73692.28
2023-03-28T02:34:14.641Z,73698.28
2023-03-28T02:34:50.527Z,73696.28
2023-03-28T02:35:29.165Z,73700.28
2023-03-28T02:36:13.086Z,73702.28
2023-03-28T02:36:51.699Z,73704.28
2023-03-28T02:37:34.875Z,73704.28
2023-03-28T02:38:13.179Z,73704.28
2023-03-28T02:38:57.164Z,73700.28
2023-03-28T02:39:43.080Z,73708.25
2023-03-28T02:40:37.588Z,73694.28
2023-03-28T02:41:18.725Z,73700.28
2023-03-28T02:42:01.919Z,73698.28
2023-03-28T02:42:41.758Z,73700.28
2023-03-28T02:43:29.811Z,73700.28
2023-03-28T02:44:12.999Z,73704.28
2023-03-28T02:45:03.154Z,73692.28
2023-03-28T02:45:53.807Z,73692.28
2023-03-28T02:46:30.525Z,73690.28
2023-03-28T02:47:14.040Z,73700.28
2023-03-28T02:47:54.706Z,73694.28
2023-03-28T02:48:40.028Z,73696.28
2023-03-28T02:49:35.066Z,73692.28
2023-03-28T02:50:26.323Z,73700.28
2023-03-28T02:51:06.383Z,73692.28
2023-03-28T02:51:41.859Z,73692.28
2023-03-28T02:52:24.587Z,73692.28
2023-03-28T02:53:02.731Z,73696.28
2023-03-28T02:53:44.782Z,73688.31
2023-03-28T02:54:30.472Z,73692.28
2023-03-28T02:55:25.690Z,73694.28
2023-03-28T02:56:37.999Z,73694.28
2023-03-28T02:57:16.871Z,73694.28
2023-03-28T02:57:59.204Z,73696.28
2023-03-28T02:58:37.892Z,73690.28
2023-03-28T02:59:14.955Z,73694.28
2023-03-28T02:59:52.902Z,73696.28
2023-03-28T03:00:25.861Z,73698.28
2023-03-28T03:01:02.773Z,73698.28
2023-03-28T03:01:36.937Z,73698.28
2023-03-28T03:02:09.472Z,73696.28
2023-03-28T03:02:46.859Z,73700.28
2023-03-28T03:03:19.581Z,73692.28
2023-03-28T03:03:52.129Z,73700.28
2023-03-28T03:04:27.243Z,73698.28
2023-03-28T03:05:02.028Z,73698.28
2023-03-28T03:05:34.434Z,73694.28
2023-03-28T03:06:10.421Z,73694.28
2023-03-28T03:06:42.923Z,73696.28
2023-03-28T03:07:18.203Z,73700.28
2023-03-28T03:07:53.667Z,73702.28
2023-03-28T03:08:28.056Z,73704.28
2023-03-28T03:09:04.977Z,73700.28
2023-03-28T03:09:44.834Z,73700.28
2023-03-28T03:10:18.782Z,73702.28
2023-03-28T03:10:52.701Z,73696.28
2023-03-28T03:11:29.029Z,73704.28
2023-03-28T03:12:01.380Z,73700.28
2023-03-28T03:12:33.925Z,73700.28
2023-03-28T03:13:08.881Z,73704.28
2023-03-28T03:13:43.193Z,73700.28
2023-03-28T03:14:15.587Z,73708.25
2023-03-28T03:14:52.366Z,73704.28
2023-03-28T03:15:47.244Z,73700.28
2023-03-28T03:16:31.599Z,73708.25
2023-03-28T03:17:05.920Z,73708.25
2023-03-28T03:17:38.466Z,73706.28
2023-03-28T03:18:14.482Z,73708.25
2023-03-28T03:18:46.807Z,73716.25
2023-03-28T03:19:19.445Z,73708.25
2023-03-28T03:19:54.453Z,73704.28
2023-03-28T03:20:27.645Z,73708.25
2023-03-28T03:21:01.924Z,73706.28
2023-03-28T03:21:37.254Z,73708.25
2023-03-28T03:22:09.654Z,73706.28
2023-03-28T03:22:55.772Z,73714.25
2023-03-28T03:23:31.225Z,73710.25
2023-03-28T03:24:06.152Z,73708.25
2023-03-28T03:24:41.524Z,73716.25
2023-03-28T03:25:16.492Z,73706.28
2023-03-28T03:26:07.192Z,73712.25
2023-03-28T03:26:49.430Z,73708.25
2023-03-28T03:27:22.186Z,73708.25
2023-03-28T03:27:54.784Z,73704.28
2023-03-28T03:28:29.782Z,73700.28
2023-03-28T03:29:03.150Z,73704.28
2023-03-28T03:29:38.902Z,73710.25
2023-03-28T03:30:16.339Z,73708.25
2023-03-28T03:31:08.780Z,73712.25
2023-03-28T03:31:58.934Z,73708.25
2023-03-28T03:32:46.117Z,73708.25
2023-03-28T03:33:18.826Z,73708.25
2023-03-28T03:33:57.897Z,73712.25
2023-03-28T03:34:34.538Z,73706.28
2023-03-28T03:35:08.103Z,73712.25
2023-03-28T03:35:45.987Z,73712.25
2023-03-28T03:36:19.056Z,73712.25
2023-03-28T03:36:55.116Z,73710.25
2023-03-28T03:37:28.068Z,73716.25
2023-03-28T03:38:00.766Z,73714.25
2023-03-28T03:38:33.302Z,73716.25
2023-03-28T03:39:09.574Z,73716.25
2023-03-28T03:39:45.679Z,73722.25
2023-03-28T03:40:20.106Z,73712.25
2023-03-28T03:40:55.851Z,73712.25
2023-03-28T03:41:28.992Z,73712.25
2023-03-28T03:42:01.396Z,73714.25
2023-03-28T03:42:40.347Z,73716.25
2023-03-28T03:43:12.742Z,73716.25
2023-03-28T03:43:47.315Z,73716.25
2023-03-28T03:44:22.385Z,73724.22
2023-03-28T03:44:56.532Z,73718.25
2023-03-28T03:45:29.815Z,73720.25
2023-03-28T03:46:05.137Z,73716.25
2023-03-28T03:46:37.633Z,73718.25
2023-03-28T03:47:10.024Z,73716.25
2023-03-28T03:47:44.969Z,73720.25
2023-03-28T03:48:17.328Z,73716.25
2023-03-28T03:48:50.560Z,73718.25
2023-03-28T03:49:26.163Z,73720.25
2023-03-28T03:49:58.879Z,73716.25
2023-03-28T03:50:31.297Z,73716.25
2023-03-28T03:51:06.376Z,73716.25
2023-03-28T03:51:39.792Z,73726.22
2023-03-28T03:52:15.547Z,73720.25
2023-03-28T03:52:47.978Z,73724.22
2023-03-28T03:53:20.415Z,73732.22
2023-03-28T03:54:24.504Z,73728.22
2023-03-28T03:55:01.610Z,73716.25
2023-03-28T03:55:34.145Z,73726.22
2023-03-28T03:56:10.428Z,73724.22
2023-03-28T03:57:15.120Z,73726.22
2023-03-28T03:57:50.128Z,73724.22
2023-03-28T03:58:22.492Z,73720.25
2023-03-28T03:58:55.763Z,73728.22
2023-03-28T03:59:34.861Z,73722.25
2023-03-28T04:00:12.326Z,73728.22
2023-03-28T04:00:58.343Z,73726.22
2023-03-28T04:01:44.242Z,73724.22
2023-03-28T04:02:44.737Z,73724.22
2023-03-28T04:03:24.249Z,73724.22
2023-03-28T04:03:57.751Z,73716.25
2023-03-28T04:04:45.806Z,73728.22
2023-03-28T04:05:35.780Z,73732.22
2023-03-28T04:06:17.015Z,73728.22
2023-03-28T04:06:49.678Z,73728.22
2023-03-28T04:07:22.091Z,73732.22
2023-03-28T04:08:01.796Z,73728.22
2023-03-28T04:08:39.607Z,73728.22
2023-03-28T04:09:12.319Z,73724.22
2023-03-28T04:10:07.153Z,73726.22
2023-03-28T04:10:44.332Z,73728.22
2023-03-28T04:11:18.141Z,73728.22
2023-03-28T04:11:53.873Z,73720.25
2023-03-28T04:12:27.308Z,73720.25
2023-03-28T04:13:01.274Z,73720.25
2023-03-28T04:13:36.561Z,73718.25
2023-03-28T04:14:09.158Z,73726.22
2023-03-28T04:14:41.793Z,73720.25
2023-03-28T04:15:51.672Z,73724.22
2023-03-28T04:16:40.582Z,73718.25
2023-03-28T04:17:16.736Z,73728.22
2023-03-28T04:17:50.523Z,73728.22
2023-03-28T04:18:26.411Z,73730.22
2023-03-28T04:19:01.357Z,73728.22
2023-03-28T04:19:34.470Z,73736.22
2023-03-28T04:20:11.708Z,73730.22
2023-03-28T04:21:02.925Z,73738.22
2023-03-28T04:21:43.935Z,73730.22
2023-03-28T04:22:18.383Z,73732.22
2023-03-28T04:23:00.462Z,73734.22
2023-03-28T04:23:38.879Z,73724.22
2023-03-28T04:24:15.773Z,73736.22
2023-03-28T04:24:58.414Z,73736.22
2023-03-28T04:25:44.116Z,73734.22
2023-03-28T04:26:28.920Z,73736.22
2023-03-28T04:27:12.817Z,73736.22
2023-03-28T04:27:54.787Z,73738.22
2023-03-28T04:28:29.904Z,73732.22
2023-03-28T04:29:10.762Z,73744.19
2023-03-28T04:29:47.491Z,73740.22
2023-03-28T04:30:44.094Z,73740.22
2023-03-28T04:31:56.281Z,73740.22
2023-03-28T04:33:07.153Z,73736.22
2023-03-28T04:33:47.523Z,73746.19
2023-03-28T04:34:25.925Z,73742.19
2023-03-28T04:35:19.405Z,73744.19
2023-03-28T04:36:02.325Z,73748.19
2023-03-28T04:36:41.210Z,73754.19
2023-03-28T04:37:13.579Z,73750.19
2023-03-28T04:37:57.996Z,73750.19
2023-03-28T04:38:36.602Z,73748.19
2023-03-28T04:39:27.993Z,73752.19
2023-03-28T04:40:16.338Z,73750.19
2023-03-28T04:40:58.167Z,73752.19
2023-03-28T04:41:55.909Z,73752.19
2023-03-28T04:42:31.243Z,73756.19
2023-03-28T04:43:09.512Z,73752.19
2023-03-28T04:43:48.125Z,73760.16
2023-03-28T04:44:20.663Z,73756.19
2023-03-28T04:45:00.688Z,73770.16
2023-03-28T04:45:35.715Z,73764.16
2023-03-28T04:46:18.572Z,73760.16
2023-03-28T04:46:51.294Z,73764.16
2023-03-28T04:47:26.374Z,73762.16
2023-03-28T04:47:58.960Z,73764.16
2023-03-28T04:48:31.779Z,73764.16
2023-03-28T04:49:06.786Z,73758.19
2023-03-28T04:49:40.425Z,73772.16
2023-03-28T04:50:16.096Z,73760.16
2023-03-28T04:50:49.891Z,73758.19
2023-03-28T04:51:23.319Z,73766.16
2023-03-28T04:51:58.338Z,73768.16
2023-03-28T04:52:31.052Z,73766.16
2023-03-28T04:53:03.545Z,73766.16
2023-03-28T04:53:38.912Z,73772.16
2023-03-28T04:54:40.225Z,73766.16
2023-03-28T04:55:20.261Z,73772.16
2023-03-28T04:55:57.463Z,73764.16
2023-03-28T04:56:32.336Z,73766.16
2023-03-28T04:57:07.742Z,73770.16
2023-03-28T04:57:56.305Z,73766.16
2023-03-28T04:58:31.946Z,73772.16
2023-03-28T04:59:04.326Z,73768.16
2023-03-28T04:59:36.981Z,73766.16
2023-03-28T05:00:17.366Z,73766.16
2023-03-28T05:01:16.119Z,73780.13
2023-03-28T05:02:15.978Z,73780.13
2023-03-28T05:02:54.567Z,73776.16
2023-03-28T05:03:27.797Z,73768.16
2023-03-28T05:04:10.474Z,73780.13
2023-03-28T05:04:43.515Z,73778.13
2023-03-28T05:05:18.853Z,73776.16
2023-03-28T05:05:53.051Z,73772.16
2023-03-28T05:06:26.199Z,73780.13
2023-03-28T05:07:02.727Z,73780.13
2023-03-28T05:07:35.363Z,73780.13
2023-03-28T05:08:08.599Z,73776.16
2023-03-28T05:08:44.004Z,73792.13
2023-03-28T05:09:17.821Z,73784.13
2023-03-28T05:09:50.190Z,73784.13
2023-03-28T05:10:25.673Z,73788.13
2023-03-28T05:11:04.945Z,73792.13
2023-03-28T05:11:37.317Z,73788.13
2023-03-28T05:12:12.339Z,73788.13
2023-03-28T05:13:06.040Z,73786.13
2023-03-28T05:13:48.750Z,73784.13
2023-03-28T05:14:43.075Z,73790.13
2023-03-28T05:15:23.295Z,73796.09
2023-03-28T05:16:09.106Z,73796.09
2023-03-28T05:17:04.384Z,73796.09
2023-03-28T05:17:41.211Z,73796.09
2023-03-28T05:18:29.287Z,73792.13
2023-03-28T05:19:01.805Z,73798.09
2023-03-28T05:19:56.688Z,73798.09
2023-03-28T05:20:30.742Z,73792.13
2023-03-28T05:21:04.134Z,73796.09
2023-03-28T05:21:40.880Z,73794.13
2023-03-28T05:22:13.658Z,73796.09
2023-03-28T05:22:48.370Z,73800.09
2023-03-28T05:23:23.339Z,73794.13
2023-03-28T05:23:58.016Z,73804.09
2023-03-28T05:24:30.578Z,73796.09
2023-03-28T05:25:06.674Z,73804.09
2023-03-28T05:25:41.856Z,73804.09
2023-03-28T05:26:20.203Z,73804.09
2023-03-28T05:26:53.353Z,73802.09
2023-03-28T05:27:28.709Z,73804.09
2023-03-28T05:28:03.854Z,73800.09
2023-03-28T05:28:38.056Z,73808.09
2023-03-28T05:29:10.750Z,73808.09
2023-03-28T05:29:46.937Z,73808.09
2023-03-28T05:30:20.537Z,73808.09
2023-03-28T05:30:57.596Z,73810.09
2023-03-28T05:31:33.375Z,73804.09
2023-03-28T05:32:26.365Z,73810.09
2023-03-28T05:33:03.475Z,73808.09
2023-03-28T05:33:36.177Z,73812.09
2023-03-28T05:34:09.690Z,73814.06
2023-03-28T05:34:52.346Z,73808.09
2023-03-28T05:35:24.812Z,73810.09
2023-03-28T05:35:57.265Z,73810.09
2023-03-28T05:36:32.249Z,73806.09
2023-03-28T05:37:05.829Z,73816.06
2023-03-28T05:38:01.436Z,73814.06
2023-03-28T05:38:33.902Z,73810.09
2023-03-28T05:39:13.044Z,73816.06
2023-03-28T05:39:48.224Z,73816.06
2023-03-28T05:40:21.503Z,73812.09
2023-03-28T05:40:55.094Z,73812.09
2023-03-28T05:41:32.631Z,73810.09
2023-03-28T05:42:05.322Z,73820.06
2023-03-28T05:42:41.039Z,73814.06
2023-03-28T05:43:24.008Z,73816.06
2023-03-28T05:43:56.424Z,73816.06
2023-03-28T05:44:47.400Z,73816.06
2023-03-28T05:45:47.389Z,73816.06
2023-03-28T05:46:27.162Z,73812.09
2023-03-28T05:46:59.844Z,73820.06
2023-03-28T05:47:33.334Z,73816.06
2023-03-28T05:48:08.949Z,73820.06
2023-03-28T05:48:42.840Z,73816.06
2023-03-28T05:49:23.127Z,73820.06
2023-03-28T05:50:00.243Z,73820.06
2023-03-28T05:50:32.620Z,73820.06
2023-03-28T05:51:12.028Z,73816.06
2023-03-28T05:51:46.998Z,73824.06
2023-03-28T05:52:19.372Z,73818.06
2023-03-28T05:52:53.196Z,73820.06
2023-03-28T05:53:28.310Z,73828.06
2023-03-28T05:54:01.136Z,73826.06
2023-03-28T05:54:33.504Z,73822.06
2023-03-28T05:55:07.165Z,73826.06
2023-03-28T05:55:42.248Z,73828.06
2023-03-28T05:56:14.575Z,73824.06
2023-03-28T05:56:52.510Z,73824.06
2023-03-28T05:57:30.105Z,73832.03
2023-03-28T05:58:05.131Z,73826.06
2023-03-28T05:58:42.403Z,73828.06
2023-03-28T05:59:15.117Z,73824.06
2023-03-28T05:59:50.582Z,73828.06
2023-03-28T06:00:25.996Z,73838.03
2023-03-28T06:01:02.773Z,73834.03
2023-03-28T06:01:35.274Z,73836.03
2023-03-28T06:02:14.832Z,73832.03
2023-03-28T06:02:50.696Z,73832.03
2023-03-28T06:03:31.968Z,73838.03
2023-03-28T06:04:09.961Z,73836.03
2023-03-28T06:04:42.874Z,73840.03
2023-03-28T06:05:21.470Z,73836.03
2023-03-28T06:05:54.202Z,73836.03
2023-03-28T06:06:33.190Z,73842.03
2023-03-28T06:07:06.281Z,73836.03
2023-03-28T06:07:42.944Z,73836.03
2023-03-28T06:08:20.864Z,73842.03
2023-03-28T06:08:53.686Z,73840.03
2023-03-28T06:09:26.466Z,73836.03
2023-03-28T06:10:06.912Z,73840.03
2023-03-28T06:10:40.177Z,73840.03
2023-03-28T06:11:25.308Z,73836.03
2023-03-28T06:12:14.115Z,73844.03
2023-03-28T06:12:55.962Z,73838.03
2023-03-28T06:13:29.062Z,73844.03
2023-03-28T06:14:05.024Z,73848.03
2023-03-28T06:14:37.392Z,73842.03
2023-03-28T06:15:14.097Z,73850.00
2023-03-28T06:15:53.131Z,73844.03
2023-03-28T06:16:34.007Z,73844.03
2023-03-28T06:17:08.030Z,73846.03
2023-03-28T06:17:58.266Z,73844.03
2023-03-28T06:18:30.680Z,73850.00
2023-03-28T06:19:16.599Z,73848.03
2023-03-28T06:19:58.697Z,73848.03
2023-03-28T06:20:31.600Z,73848.03
2023-03-28T06:21:07.234Z,73852.00
2023-03-28T06:21:39.833Z,73856.00
2023-03-28T06:22:12.469Z,73852.00
2023-03-28T06:22:50.482Z,73854.00
2023-03-28T06:23:22.872Z,73854.00
2023-03-28T06:23:55.798Z,73852.00
2023-03-28T06:24:36.007Z,73864.00
2023-03-28T06:25:09.827Z,73856.00
2023-03-28T06:25:42.562Z,73856.00
2023-03-28T06:26:17.657Z,73852.00
2023-03-28T06:26:51.121Z,73850.00
2023-03-28T06:27:30.223Z,73850.00
2023-03-28T06:28:05.769Z,73852.00
2023-03-28T06:28:42.551Z,73852.00
2023-03-28T06:29:40.323Z,73854.00
2023-03-28T06:30:14.361Z,73846.03
2023-03-28T06:30:53.983Z,73856.00
2023-03-28T06:31:26.370Z,73852.00
2023-03-28T06:31:58.860Z,73856.00
2023-03-28T06:32:33.950Z,73856.00
2023-03-28T06:33:07.724Z,73856.00
2023-03-28T06:33:43.404Z,73856.00
2023-03-28T06:34:17.474Z,73852.00
2023-03-28T06:35:03.575Z,73854.00
2023-03-28T06:35:36.378Z,73856.00
2023-03-28T06:36:10.124Z,73856.00
2023-03-28T06:36:45.143Z,73860.00
2023-03-28T06:37:17.729Z,73854.00
2023-03-28T06:38:10.046Z,73862.00
2023-03-28T06:38:44.814Z,73860.00
2023-03-28T06:39:18.302Z,73864.00
2023-03-28T06:39:54.439Z,73856.00
2023-03-28T06:40:27.185Z,73866.00
2023-03-28T06:41:03.165Z,73869.97
2023-03-28T06:41:35.579Z,73860.00
2023-03-28T06:42:09.133Z,73866.00
2023-03-28T06:42:56.762Z,73869.97
2023-03-28T06:43:47.859Z,73867.97
2023-03-28T06:44:41.377Z,73864.00
2023-03-28T06:45:33.980Z,73867.97
2023-03-28T06:46:13.858Z,73864.00
2023-03-28T06:46:50.160Z,73864.00
2023-03-28T06:47:26.221Z,73871.97
2023-03-28T06:47:58.720Z,73860.00
2023-03-28T06:48:50.063Z,73860.00
2023-03-28T06:49:40.774Z,73864.00
2023-03-28T06:50:35.654Z,73864.00
2023-03-28T06:51:15.074Z,73860.00
2023-03-28T06:51:49.895Z,73864.00
2023-03-28T06:52:25.176Z,73862.00
2023-03-28T06:52:58.737Z,73864.00
2023-03-28T06:53:32.097Z,73858.00
2023-03-28T06:54:07.230Z,73864.00
2023-03-28T06:54:39.654Z,73860.00
2023-03-28T06:55:12.182Z,73869.97
2023-03-28T06:55:47.229Z,73867.97
2023-03-28T06:56:19.683Z,73866.00
2023-03-28T06:56:54.719Z,73869.97
2023-03-28T06:57:27.149Z,73871.97
2023-03-28T06:58:13.071Z,73866.00
2023-03-28T06:58:57.370Z,73864.00
2023-03-28T06:59:32.158Z,73867.97
2023-03-28T07:00:12.960Z,73867.97
2023-03-28T07:01:06.523Z,73871.97
2023-03-28T07:01:53.583Z,73869.97
2023-03-28T07:02:32.476Z,73871.97
2023-03-28T07:03:12.219Z,73867.97
2023-03-28T07:03:44.730Z,73867.97
2023-03-28T07:04:25.594Z,73869.97
2023-03-28T07:04:57.986Z,73871.97
2023-03-28T07:05:30.549Z,73871.97
2023-03-28T07:06:10.493Z,73875.97
2023-03-28T07:06:42.863Z,73879.97
2023-03-28T07:07:15.585Z,73873.97
2023-03-28T07:07:50.746Z,73873.97
2023-03-28T07:08:23.294Z,73877.97
2023-03-28T07:09:01.631Z,73871.97
2023-03-28T07:09:44.590Z,73873.97
2023-03-28T07:10:20.753Z,73879.97
2023-03-28T07:10:53.440Z,73879.97
2023-03-28T07:11:26.922Z,73875.97
2023-03-28T07:12:02.150Z,73877.97
2023-03-28T07:12:34.522Z,73879.97
2023-03-28T07:13:07.277Z,73881.97
2023-03-28T07:13:46.476Z,73879.97
2023-03-28T07:14:19.314Z,73879.97
2023-03-28T07:14:54.363Z,73873.97
2023-03-28T07:15:26.707Z,73883.94
2023-03-28T07:16:03.703Z,73879.97
2023-03-28T07:16:38.817Z,73883.94
2023-03-28T07:17:12.030Z,73881.97
2023-03-28T07:17:44.492Z,73879.97
2023-03-28T07:18:21.214Z,73881.97
2023-03-28T07:18:53.710Z,73877.97
2023-03-28T07:19:31.842Z,73881.97
2023-03-28T07:20:08.114Z,73885.94
2023-03-28T07:20:41.694Z,73887.94
2023-03-28T07:21:18.996Z,73883.94
2023-03-28T07:21:53.163Z,73881.97
2023-03-28T07:22:30.939Z,73885.94
2023-03-28T07:23:03.285Z,73891.94
2023-03-28T07:23:36.553Z,73891.94
2023-03-28T07:24:11.668Z,73887.94
2023-03-28T07:25:08.350Z,73885.94
2023-03-28T07:25:44.382Z,73891.94
2023-03-28T07:26:17.291Z,73889.94
2023-03-28T07:27:01.215Z,73891.94
2023-03-28T07:27:44.564Z,73891.94
2023-03-28T07:28:24.400Z,73891.94
2023-03-28T07:28:59.463Z,73891.94
2023-03-28T07:29:36.075Z,73895.94
2023-03-28T07:30:10.217Z,73903.91
2023-03-28T07:30:45.199Z,73899.94
2023-03-28T07:31:18.622Z,73895.94
2023-03-28T07:31:52.036Z,73893.94
2023-03-28T07:32:33.253Z,73899.94
2023-03-28T07:33:18.032Z,73899.94
2023-03-28T07:33:58.829Z,73899.94
2023-03-28T07:34:31.448Z,73895.94
2023-03-28T07:35:10.304Z,73907.91
2023-03-28T07:35:52.926Z,73899.94
2023-03-28T07:36:31.202Z,73901.94